sensor_id;sensor_type;location;lat;lon;timestamp;P1;durP1;ratioP1;P2;durP2;ratioP2
41903;SDS011;27586;51.124;4.182;2023-02-02T00:02:04;14.48;;;5.20;;
41903;SDS011;27586;51.124;4.182;2023-02-02T00:04:34;17.38;;;5.10;;
41903;SDS011;27586;51.124;4.182;2023-02-02T00:07:01;15.40;;;4.90;;
41903;SDS011;27586;51.124;4.182;2023-02-02T00:09:29;15.52;;;4.88;;
41903;SDS011;27586;51.124;4.182;2023-02-02T00:11:56;15.38;;;5.60;;
41903;SDS011;27586;51.124;4.182;2023-02-02T00:14:23;13.52;;;4.05;;
41903;SDS011;27586;51.124;4.182;2023-02-02T00:16:50;14.85;;;4.78;;
41903;SDS011;27586;51.124;4.182;2023-02-02T00:19:18;14.50;;;4.85;;
41903;SDS011;27586;51.124;4.182;2023-02-02T00:21:45;17.27;;;5.15;;
41903;SDS011;27586;51.124;4.182;2023-02-02T00:24:12;18.98;;;4.85;;
41903;SDS011;27586;51.124;4.182;2023-02-02T00:26:39;15.73;;;4.55;;
41903;SDS011;27586;51.124;4.182;2023-02-02T00:29:07;15.60;;;4.85;;
41903;SDS011;27586;51.124;4.182;2023-02-02T00:31:37;18.92;;;5.10;;
41903;SDS011;27586;51.124;4.182;2023-02-02T00:34:03;15.38;;;4.68;;
41903;SDS011;27586;51.124;4.182;2023-02-02T00:36:29;16.77;;;4.63;;
41903;SDS011;27586;51.124;4.182;2023-02-02T00:38:54;14.82;;;4.75;;
41903;SDS011;27586;51.124;4.182;2023-02-02T00:41:20;19.23;;;5.00;;
41903;SDS011;27586;51.124;4.182;2023-02-02T00:43:46;17.27;;;5.43;;
41903;SDS011;27586;51.124;4.182;2023-02-02T00:46:31;16.63;;;5.07;;
41903;SDS011;27586;51.124;4.182;2023-02-02T00:48:57;19.73;;;5.32;;
41903;SDS011;27586;51.124;4.182;2023-02-02T00:51:23;18.92;;;4.57;;
41903;SDS011;27586;51.124;4.182;2023-02-02T00:53:48;19.40;;;5.25;;
41903;SDS011;27586;51.124;4.182;2023-02-02T00:56:14;13.88;;;4.90;;
41903;SDS011;27586;51.124;4.182;2023-02-02T00:58:39;13.65;;;4.38;;
41903;SDS011;27586;51.124;4.182;2023-02-02T01:01:10;15.70;;;5.30;;
41903;SDS011;27586;51.124;4.182;2023-02-02T01:03:40;16.90;;;5.22;;
41903;SDS011;27586;51.124;4.182;2023-02-02T01:06:06;16.40;;;5.22;;
41903;SDS011;27586;51.124;4.182;2023-02-02T01:08:32;20.38;;;5.65;;
41903;SDS011;27586;51.124;4.182;2023-02-02T01:10:58;15.23;;;5.20;;
41903;SDS011;27586;51.124;4.182;2023-02-02T01:13:24;17.08;;;5.10;;
41903;SDS011;27586;51.124;4.182;2023-02-02T01:15:54;16.35;;;4.95;;
41903;SDS011;27586;51.124;4.182;2023-02-02T01:18:20;20.25;;;5.30;;
41903;SDS011;27586;51.124;4.182;2023-02-02T01:20:46;19.85;;;5.80;;
41903;SDS011;27586;51.124;4.182;2023-02-02T01:23:11;14.23;;;5.03;;
41903;SDS011;27586;51.124;4.182;2023-02-02T01:25:37;16.52;;;4.88;;
41903;SDS011;27586;51.124;4.182;2023-02-02T01:28:03;15.48;;;5.50;;
41903;SDS011;27586;51.124;4.182;2023-02-02T01:30:29;16.80;;;4.93;;
41903;SDS011;27586;51.124;4.182;2023-02-02T01:32:55;20.17;;;5.55;;
41903;SDS011;27586;51.124;4.182;2023-02-02T01:35:20;17.58;;;5.53;;
41903;SDS011;27586;51.124;4.182;2023-02-02T01:37:46;19.23;;;5.57;;
41903;SDS011;27586;51.124;4.182;2023-02-02T01:40:12;16.77;;;5.32;;
41903;SDS011;27586;51.124;4.182;2023-02-02T01:42:38;15.60;;;5.30;;
41903;SDS011;27586;51.124;4.182;2023-02-02T01:47:41;18.92;;;5.40;;
41903;SDS011;27586;51.124;4.182;2023-02-02T01:50:13;14.15;;;5.10;;
41903;SDS011;27586;51.124;4.182;2023-02-02T01:52:41;16.88;;;5.35;;
41903;SDS011;27586;51.124;4.182;2023-02-02T01:55:10;16.95;;;5.05;;
41903;SDS011;27586;51.124;4.182;2023-02-02T02:00:10;18.75;;;5.00;;
41903;SDS011;27586;51.124;4.182;2023-02-02T02:02:38;15.73;;;4.90;;
41903;SDS011;27586;51.124;4.182;2023-02-02T02:05:06;20.88;;;4.75;;
41903;SDS011;27586;51.124;4.182;2023-02-02T02:07:33;16.83;;;5.57;;
41903;SDS011;27586;51.124;4.182;2023-02-02T02:09:59;17.13;;;6.22;;
41903;SDS011;27586;51.124;4.182;2023-02-02T02:12:24;16.52;;;5.32;;
41903;SDS011;27586;51.124;4.182;2023-02-02T02:14:50;18.15;;;5.38;;
41903;SDS011;27586;51.124;4.182;2023-02-02T02:24:03;15.45;;;5.07;;
41903;SDS011;27586;51.124;4.182;2023-02-02T02:35:08;15.00;;;5.30;;
41903;SDS011;27586;51.124;4.182;2023-02-02T02:37:45;15.13;;;5.18;;
41903;SDS011;27586;51.124;4.182;2023-02-02T02:42:57;15.75;;;4.90;;
41903;SDS011;27586;51.124;4.182;2023-02-02T02:45:31;12.48;;;4.50;;
41903;SDS011;27586;51.124;4.182;2023-02-02T02:47:58;16.77;;;4.82;;
41903;SDS011;27586;51.124;4.182;2023-02-02T02:50:24;15.38;;;4.95;;
41903;SDS011;27586;51.124;4.182;2023-02-02T02:52:54;14.57;;;5.03;;
41903;SDS011;27586;51.124;4.182;2023-02-02T02:55:27;15.57;;;4.78;;
41903;SDS011;27586;51.124;4.182;2023-02-02T02:58:19;15.73;;;5.00;;
41903;SDS011;27586;51.124;4.182;2023-02-02T03:01:13;12.90;;;4.28;;
41903;SDS011;27586;51.124;4.182;2023-02-02T03:03:54;13.43;;;5.07;;
41903;SDS011;27586;51.124;4.182;2023-02-02T03:09:06;13.95;;;5.10;;
41903;SDS011;27586;51.124;4.182;2023-02-02T03:11:39;17.55;;;4.97;;
41903;SDS011;27586;51.124;4.182;2023-02-02T03:14:05;14.55;;;4.70;;
41903;SDS011;27586;51.124;4.182;2023-02-02T03:16:34;13.60;;;4.93;;
41903;SDS011;27586;51.124;4.182;2023-02-02T03:19:01;13.50;;;4.63;;
41903;SDS011;27586;51.124;4.182;2023-02-02T03:21:28;15.70;;;4.57;;
41903;SDS011;27586;51.124;4.182;2023-02-02T03:23:54;12.60;;;4.72;;
41903;SDS011;27586;51.124;4.182;2023-02-02T03:26:20;16.98;;;4.95;;
41903;SDS011;27586;51.124;4.182;2023-02-02T03:28:46;16.85;;;5.38;;
41903;SDS011;27586;51.124;4.182;2023-02-02T03:31:13;18.50;;;5.28;;
41903;SDS011;27586;51.124;4.182;2023-02-02T03:33:38;17.33;;;4.63;;
41903;SDS011;27586;51.124;4.182;2023-02-02T03:36:04;15.75;;;5.00;;
41903;SDS011;27586;51.124;4.182;2023-02-02T03:38:30;16.05;;;4.32;;
41903;SDS011;27586;51.124;4.182;2023-02-02T03:40:56;14.57;;;4.13;;
41903;SDS011;27586;51.124;4.182;2023-02-02T03:43:22;17.73;;;4.78;;
41903;SDS011;27586;51.124;4.182;2023-02-02T03:45:55;19.55;;;5.15;;
41903;SDS011;27586;51.124;4.182;2023-02-02T03:48:22;13.80;;;4.20;;
41903;SDS011;27586;51.124;4.182;2023-02-02T03:50:47;15.77;;;4.38;;
41903;SDS011;27586;51.124;4.182;2023-02-02T03:53:13;13.82;;;4.97;;
41903;SDS011;27586;51.124;4.182;2023-02-02T03:55:39;14.52;;;4.28;;
41903;SDS011;27586;51.124;4.182;2023-02-02T03:58:05;13.60;;;4.93;;
41903;SDS011;27586;51.124;4.182;2023-02-02T04:00:31;15.52;;;4.57;;
41903;SDS011;27586;51.124;4.182;2023-02-02T04:02:57;16.13;;;4.38;;
41903;SDS011;27586;51.124;4.182;2023-02-02T04:05:22;13.70;;;4.35;;
41903;SDS011;27586;51.124;4.182;2023-02-02T04:07:48;15.13;;;5.32;;
41903;SDS011;27586;51.124;4.182;2023-02-02T04:10:14;16.20;;;4.38;;
41903;SDS011;27586;51.124;4.182;2023-02-02T04:12:39;11.95;;;4.45;;
41903;SDS011;27586;51.124;4.182;2023-02-02T04:15:05;14.38;;;4.30;;
41903;SDS011;27586;51.124;4.182;2023-02-02T04:17:31;17.90;;;5.10;;
41903;SDS011;27586;51.124;4.182;2023-02-02T04:19:57;15.77;;;4.82;;
41903;SDS011;27586;51.124;4.182;2023-02-02T04:22:23;14.43;;;4.68;;
41903;SDS011;27586;51.124;4.182;2023-02-02T04:24:50;12.43;;;4.90;;
41903;SDS011;27586;51.124;4.182;2023-02-02T04:27:15;16.08;;;5.15;;
41903;SDS011;27586;51.124;4.182;2023-02-02T04:29:41;13.63;;;5.32;;
41903;SDS011;27586;51.124;4.182;2023-02-02T04:32:07;14.90;;;4.78;;
41903;SDS011;27586;51.124;4.182;2023-02-02T04:34:32;15.00;;;5.05;;
41903;SDS011;27586;51.124;4.182;2023-02-02T04:36:58;13.05;;;4.68;;
41903;SDS011;27586;51.124;4.182;2023-02-02T04:39:24;17.10;;;4.97;;
41903;SDS011;27586;51.124;4.182;2023-02-02T04:41:49;13.80;;;4.53;;
41903;SDS011;27586;51.124;4.182;2023-02-02T04:44:15;15.95;;;4.70;;
41903;SDS011;27586;51.124;4.182;2023-02-02T04:46:41;13.02;;;4.60;;
41903;SDS011;27586;51.124;4.182;2023-02-02T04:49:08;15.98;;;5.20;;
41903;SDS011;27586;51.124;4.182;2023-02-02T04:51:35;13.73;;;4.88;;
41903;SDS011;27586;51.124;4.182;2023-02-02T04:54:02;17.92;;;5.00;;
41903;SDS011;27586;51.124;4.182;2023-02-02T04:56:28;15.45;;;4.72;;
41903;SDS011;27586;51.124;4.182;2023-02-02T04:58:53;14.32;;;4.85;;
41903;SDS011;27586;51.124;4.182;2023-02-02T05:01:22;13.48;;;4.90;;
41903;SDS011;27586;51.124;4.182;2023-02-02T05:03:48;18.33;;;5.22;;
41903;SDS011;27586;51.124;4.182;2023-02-02T05:06:14;13.95;;;5.03;;
41903;SDS011;27586;51.124;4.182;2023-02-02T05:08:41;13.70;;;4.32;;
41903;SDS011;27586;51.124;4.182;2023-02-02T05:11:07;19.45;;;4.93;;
41903;SDS011;27586;51.124;4.182;2023-02-02T05:13:37;16.70;;;5.00;;
41903;SDS011;27586;51.124;4.182;2023-02-02T05:16:04;16.08;;;4.35;;
41903;SDS011;27586;51.124;4.182;2023-02-02T05:18:31;14.00;;;4.68;;
41903;SDS011;27586;51.124;4.182;2023-02-02T05:21:00;16.98;;;5.05;;
41903;SDS011;27586;51.124;4.182;2023-02-02T05:23:27;14.30;;;4.68;;
41903;SDS011;27586;51.124;4.182;2023-02-02T05:25:53;12.38;;;4.45;;
41903;SDS011;27586;51.124;4.182;2023-02-02T05:28:19;15.50;;;4.97;;
41903;SDS011;27586;51.124;4.182;2023-02-02T05:30:46;12.48;;;4.63;;
41903;SDS011;27586;51.124;4.182;2023-02-02T05:33:12;14.98;;;4.53;;
41903;SDS011;27586;51.124;4.182;2023-02-02T05:35:38;11.32;;;4.45;;
41903;SDS011;27586;51.124;4.182;2023-02-02T05:38:04;14.95;;;5.00;;
41903;SDS011;27586;51.124;4.182;2023-02-02T05:40:29;16.98;;;5.40;;
41903;SDS011;27586;51.124;4.182;2023-02-02T05:42:55;14.80;;;5.00;;
41903;SDS011;27586;51.124;4.182;2023-02-02T05:45:21;11.60;;;3.85;;
41903;SDS011;27586;51.124;4.182;2023-02-02T05:47:47;12.68;;;4.70;;
41903;SDS011;27586;51.124;4.182;2023-02-02T05:50:13;16.27;;;4.68;;
41903;SDS011;27586;51.124;4.182;2023-02-02T05:52:39;15.02;;;4.88;;
41903;SDS011;27586;51.124;4.182;2023-02-02T05:55:06;17.98;;;5.03;;
41903;SDS011;27586;51.124;4.182;2023-02-02T05:57:32;18.58;;;4.82;;
41903;SDS011;27586;51.124;4.182;2023-02-02T05:59:58;13.65;;;4.53;;
41903;SDS011;27586;51.124;4.182;2023-02-02T06:02:23;14.20;;;5.20;;
41903;SDS011;27586;51.124;4.182;2023-02-02T06:04:49;13.60;;;4.32;;
41903;SDS011;27586;51.124;4.182;2023-02-02T06:07:14;11.63;;;4.18;;
41903;SDS011;27586;51.124;4.182;2023-02-02T06:09:40;13.05;;;4.40;;
41903;SDS011;27586;51.124;4.182;2023-02-02T06:12:06;15.98;;;4.38;;
41903;SDS011;27586;51.124;4.182;2023-02-02T06:14:32;19.13;;;5.32;;
41903;SDS011;27586;51.124;4.182;2023-02-02T06:16:58;13.82;;;4.15;;
41903;SDS011;27586;51.124;4.182;2023-02-02T06:19:24;13.85;;;4.82;;
41903;SDS011;27586;51.124;4.182;2023-02-02T06:21:49;11.30;;;4.43;;
41903;SDS011;27586;51.124;4.182;2023-02-02T06:24:15;14.50;;;4.30;;
41903;SDS011;27586;51.124;4.182;2023-02-02T06:26:40;13.85;;;4.47;;
41903;SDS011;27586;51.124;4.182;2023-02-02T06:29:06;18.23;;;4.82;;
41903;SDS011;27586;51.124;4.182;2023-02-02T06:31:35;12.70;;;4.47;;
41903;SDS011;27586;51.124;4.182;2023-02-02T06:34:01;14.27;;;4.47;;
41903;SDS011;27586;51.124;4.182;2023-02-02T06:36:27;18.63;;;4.68;;
41903;SDS011;27586;51.124;4.182;2023-02-02T06:38:53;13.50;;;4.30;;
41903;SDS011;27586;51.124;4.182;2023-02-02T06:41:20;14.40;;;4.55;;
41903;SDS011;27586;51.124;4.182;2023-02-02T06:43:47;16.77;;;4.82;;
41903;SDS011;27586;51.124;4.182;2023-02-02T06:46:13;13.30;;;5.00;;
41903;SDS011;27586;51.124;4.182;2023-02-02T06:48:39;14.38;;;4.80;;
41903;SDS011;27586;51.124;4.182;2023-02-02T06:51:04;14.73;;;4.55;;
41903;SDS011;27586;51.124;4.182;2023-02-02T06:53:31;15.15;;;4.85;;
41903;SDS011;27586;51.124;4.182;2023-02-02T06:55:59;13.32;;;4.28;;
41903;SDS011;27586;51.124;4.182;2023-02-02T06:58:31;14.27;;;4.97;;
41903;SDS011;27586;51.124;4.182;2023-02-02T07:01:07;13.18;;;4.40;;
41903;SDS011;27586;51.124;4.182;2023-02-02T07:03:34;14.18;;;4.20;;
41903;SDS011;27586;51.124;4.182;2023-02-02T07:06:13;12.77;;;4.13;;
41903;SDS011;27586;51.124;4.182;2023-02-02T07:08:49;12.98;;;4.38;;
41903;SDS011;27586;51.124;4.182;2023-02-02T07:11:16;16.70;;;5.40;;
41903;SDS011;27586;51.124;4.182;2023-02-02T07:13:43;15.07;;;6.18;;
41903;SDS011;27586;51.124;4.182;2023-02-02T07:16:09;12.52;;;5.03;;
41903;SDS011;27586;51.124;4.182;2023-02-02T07:18:36;19.00;;;4.90;;
41903;SDS011;27586;51.124;4.182;2023-02-02T07:21:03;13.48;;;4.68;;
41903;SDS011;27586;51.124;4.182;2023-02-02T07:23:29;17.10;;;4.38;;
41903;SDS011;27586;51.124;4.182;2023-02-02T07:26:03;15.68;;;4.47;;
41903;SDS011;27586;51.124;4.182;2023-02-02T07:28:33;11.00;;;4.43;;
41903;SDS011;27586;51.124;4.182;2023-02-02T07:31:00;16.58;;;4.53;;
41903;SDS011;27586;51.124;4.182;2023-02-02T07:33:36;13.55;;;4.32;;
41903;SDS011;27586;51.124;4.182;2023-02-02T07:36:04;15.63;;;4.72;;
41903;SDS011;27586;51.124;4.182;2023-02-02T07:38:30;14.55;;;4.55;;
41903;SDS011;27586;51.124;4.182;2023-02-02T07:40:59;9.95;;;3.83;;
41903;SDS011;27586;51.124;4.182;2023-02-02T07:43:25;11.77;;;4.05;;
41903;SDS011;27586;51.124;4.182;2023-02-02T07:45:50;14.27;;;4.35;;
41903;SDS011;27586;51.124;4.182;2023-02-02T07:48:16;16.05;;;4.30;;
41903;SDS011;27586;51.124;4.182;2023-02-02T07:50:42;13.82;;;4.40;;
41903;SDS011;27586;51.124;4.182;2023-02-02T07:53:07;15.90;;;4.05;;
41903;SDS011;27586;51.124;4.182;2023-02-02T07:55:33;15.75;;;4.28;;
41903;SDS011;27586;51.124;4.182;2023-02-02T07:57:59;13.38;;;3.75;;
41903;SDS011;27586;51.124;4.182;2023-02-02T08:00:25;13.85;;;4.40;;
41903;SDS011;27586;51.124;4.182;2023-02-02T08:02:51;15.90;;;4.30;;
41903;SDS011;27586;51.124;4.182;2023-02-02T08:05:17;13.35;;;3.97;;
41903;SDS011;27586;51.124;4.182;2023-02-02T08:07:45;9.10;;;3.78;;
41903;SDS011;27586;51.124;4.182;2023-02-02T08:10:11;11.25;;;4.22;;
41903;SDS011;27586;51.124;4.182;2023-02-02T08:12:36;11.60;;;3.92;;
41903;SDS011;27586;51.124;4.182;2023-02-02T08:15:02;10.63;;;3.65;;
41903;SDS011;27586;51.124;4.182;2023-02-02T08:17:28;9.65;;;4.18;;
41903;SDS011;27586;51.124;4.182;2023-02-02T08:19:53;12.65;;;4.00;;
41903;SDS011;27586;51.124;4.182;2023-02-02T08:22:19;15.18;;;4.07;;
41903;SDS011;27586;51.124;4.182;2023-02-02T08:24:45;12.48;;;3.85;;
41903;SDS011;27586;51.124;4.182;2023-02-02T08:27:10;15.02;;;4.40;;
41903;SDS011;27586;51.124;4.182;2023-02-02T08:29:36;10.63;;;3.65;;
41903;SDS011;27586;51.124;4.182;2023-02-02T08:32:03;12.20;;;3.78;;
41903;SDS011;27586;51.124;4.182;2023-02-02T08:34:29;13.50;;;3.83;;
41903;SDS011;27586;51.124;4.182;2023-02-02T08:36:58;13.45;;;4.03;;
41903;SDS011;27586;51.124;4.182;2023-02-02T08:39:24;10.88;;;3.65;;
41903;SDS011;27586;51.124;4.182;2023-02-02T08:41:49;11.65;;;3.55;;
41903;SDS011;27586;51.124;4.182;2023-02-02T08:44:18;11.35;;;3.97;;
41903;SDS011;27586;51.124;4.182;2023-02-02T08:46:43;15.02;;;4.22;;
41903;SDS011;27586;51.124;4.182;2023-02-02T08:49:10;11.32;;;3.92;;
41903;SDS011;27586;51.124;4.182;2023-02-02T08:51:36;11.75;;;3.95;;
41903;SDS011;27586;51.124;4.182;2023-02-02T08:54:02;12.90;;;4.15;;
41903;SDS011;27586;51.124;4.182;2023-02-02T08:56:27;12.25;;;4.18;;
41903;SDS011;27586;51.124;4.182;2023-02-02T08:58:54;14.65;;;4.50;;
41903;SDS011;27586;51.124;4.182;2023-02-02T09:01:26;14.73;;;4.43;;
41903;SDS011;27586;51.124;4.182;2023-02-02T09:03:57;10.90;;;4.03;;
41903;SDS011;27586;51.124;4.182;2023-02-02T09:06:28;10.00;;;3.67;;
41903;SDS011;27586;51.124;4.182;2023-02-02T09:08:56;10.93;;;4.00;;
41903;SDS011;27586;51.124;4.182;2023-02-02T09:11:21;12.57;;;3.92;;
41903;SDS011;27586;51.124;4.182;2023-02-02T09:13:47;9.93;;;3.85;;
41903;SDS011;27586;51.124;4.182;2023-02-02T09:16:17;9.85;;;3.85;;
41903;SDS011;27586;51.124;4.182;2023-02-02T09:18:43;11.48;;;3.88;;
41903;SDS011;27586;51.124;4.182;2023-02-02T09:21:10;12.20;;;4.10;;
41903;SDS011;27586;51.124;4.182;2023-02-02T09:23:38;10.77;;;3.70;;
41903;SDS011;27586;51.124;4.182;2023-02-02T09:28:34;10.55;;;3.55;;
41903;SDS011;27586;51.124;4.182;2023-02-02T09:31:00;12.35;;;4.05;;
41903;SDS011;27586;51.124;4.182;2023-02-02T09:33:26;12.52;;;3.60;;
41903;SDS011;27586;51.124;4.182;2023-02-02T09:35:52;13.85;;;4.10;;
41903;SDS011;27586;51.124;4.182;2023-02-02T09:38:17;13.93;;;3.88;;
41903;SDS011;27586;51.124;4.182;2023-02-02T09:40:43;10.80;;;3.38;;
41903;SDS011;27586;51.124;4.182;2023-02-02T09:48:57;9.25;;;3.28;;
41903;SDS011;27586;51.124;4.182;2023-02-02T09:51:20;10.73;;;3.72;;
41903;SDS011;27586;51.124;4.182;2023-02-02T09:53:55;13.55;;;3.97;;
41903;SDS011;27586;51.124;4.182;2023-02-02T09:56:41;10.48;;;3.50;;
41903;SDS011;27586;51.124;4.182;2023-02-02T09:59:15;7.45;;;3.60;;
41903;SDS011;27586;51.124;4.182;2023-02-02T10:01:44;12.15;;;3.88;;
41903;SDS011;27586;51.124;4.182;2023-02-02T10:07:28;11.18;;;3.60;;
41903;SDS011;27586;51.124;4.182;2023-02-02T10:10:10;10.82;;;3.45;;
41903;SDS011;27586;51.124;4.182;2023-02-02T10:12:51;9.90;;;3.30;;
41903;SDS011;27586;51.124;4.182;2023-02-02T10:15:20;11.85;;;3.97;;
41903;SDS011;27586;51.124;4.182;2023-02-02T10:18:10;10.85;;;3.47;;
41903;SDS011;27586;51.124;4.182;2023-02-02T10:21:07;11.57;;;3.08;;
41903;SDS011;27586;51.124;4.182;2023-02-02T10:23:37;8.00;;;3.30;;
41903;SDS011;27586;51.124;4.182;2023-02-02T10:28:45;12.65;;;3.80;;
41903;SDS011;27586;51.124;4.182;2023-02-02T10:31:35;9.80;;;3.42;;
41903;SDS011;27586;51.124;4.182;2023-02-02T10:34:23;10.07;;;3.30;;
41903;SDS011;27586;51.124;4.182;2023-02-02T10:37:01;10.77;;;3.58;;
41903;SDS011;27586;51.124;4.182;2023-02-02T10:45:31;11.25;;;3.38;;
41903;SDS011;27586;51.124;4.182;2023-02-02T10:47:57;10.55;;;2.90;;
41903;SDS011;27586;51.124;4.182;2023-02-02T10:50:23;8.57;;;3.25;;
41903;SDS011;27586;51.124;4.182;2023-02-02T10:52:52;11.77;;;3.42;;
41903;SDS011;27586;51.124;4.182;2023-02-02T10:55:37;14.73;;;4.00;;
41903;SDS011;27586;51.124;4.182;2023-02-02T11:03:10;9.68;;;2.85;;
41903;SDS011;27586;51.124;4.182;2023-02-02T11:05:37;11.05;;;3.25;;
41903;SDS011;27586;51.124;4.182;2023-02-02T11:08:32;8.65;;;3.20;;
41903;SDS011;27586;51.124;4.182;2023-02-02T11:11:11;11.85;;;3.50;;
41903;SDS011;27586;51.124;4.182;2023-02-02T11:13:48;17.88;;;4.03;;
41903;SDS011;27586;51.124;4.182;2023-02-02T11:16:20;11.90;;;3.08;;
41903;SDS011;27586;51.124;4.182;2023-02-02T11:18:48;11.88;;;3.40;;
41903;SDS011;27586;51.124;4.182;2023-02-02T11:21:16;9.68;;;3.00;;
41903;SDS011;27586;51.124;4.182;2023-02-02T11:24:10;10.68;;;3.47;;
41903;SDS011;27586;51.124;4.182;2023-02-02T11:26:51;10.73;;;3.22;;
41903;SDS011;27586;51.124;4.182;2023-02-02T11:29:25;7.78;;;3.03;;
41903;SDS011;27586;51.124;4.182;2023-02-02T11:38:14;14.00;;;4.15;;
41903;SDS011;27586;51.124;4.182;2023-02-02T11:40:41;10.07;;;3.80;;
41903;SDS011;27586;51.124;4.182;2023-02-02T11:43:28;11.60;;;3.63;;
41903;SDS011;27586;51.124;4.182;2023-02-02T11:45:58;7.55;;;3.05;;
41903;SDS011;27586;51.124;4.182;2023-02-02T11:48:35;11.27;;;3.22;;
41903;SDS011;27586;51.124;4.182;2023-02-02T11:51:03;12.68;;;3.92;;
41903;SDS011;27586;51.124;4.182;2023-02-02T11:55:58;11.10;;;3.33;;
41903;SDS011;27586;51.124;4.182;2023-02-02T11:58:50;10.27;;;2.72;;
41903;SDS011;27586;51.124;4.182;2023-02-02T12:01:31;7.50;;;2.83;;
41903;SDS011;27586;51.124;4.182;2023-02-02T12:06:40;8.75;;;3.05;;
41903;SDS011;27586;51.124;4.182;2023-02-02T12:09:13;7.63;;;2.90;;
41903;SDS011;27586;51.124;4.182;2023-02-02T12:27:44;7.80;;;3.25;;
41903;SDS011;27586;51.124;4.182;2023-02-02T12:30:16;9.30;;;3.10;;
41903;SDS011;27586;51.124;4.182;2023-02-02T12:35:39;12.50;;;3.60;;
41903;SDS011;27586;51.124;4.182;2023-02-02T12:49:27;10.80;;;3.05;;
41903;SDS011;27586;51.124;4.182;2023-02-02T13:00:26;8.50;;;2.65;;
41903;SDS011;27586;51.124;4.182;2023-02-02T13:03:28;11.95;;;2.90;;
41903;SDS011;27586;51.124;4.182;2023-02-02T13:09:24;6.90;;;2.78;;
41903;SDS011;27586;51.124;4.182;2023-02-02T13:12:01;6.75;;;3.22;;
41903;SDS011;27586;51.124;4.182;2023-02-02T13:14:45;6.57;;;3.33;;
41903;SDS011;27586;51.124;4.182;2023-02-02T13:17:18;8.13;;;3.60;;
41903;SDS011;27586;51.124;4.182;2023-02-02T13:19:58;9.32;;;3.50;;
41903;SDS011;27586;51.124;4.182;2023-02-02T13:22:46;9.02;;;3.40;;
41903;SDS011;27586;51.124;4.182;2023-02-02T13:26:03;9.50;;;3.50;;
41903;SDS011;27586;51.124;4.182;2023-02-02T13:28:10;5.90;;;3.20;;
41903;SDS011;27586;51.124;4.182;2023-02-02T13:30:52;8.57;;;3.78;;
41903;SDS011;27586;51.124;4.182;2023-02-02T13:33:28;9.43;;;3.85;;
41903;SDS011;27586;51.124;4.182;2023-02-02T13:35:59;9.02;;;3.53;;
41903;SDS011;27586;51.124;4.182;2023-02-02T13:38:50;8.70;;;3.22;;
41903;SDS011;27586;51.124;4.182;2023-02-02T13:41:20;7.28;;;3.60;;
41903;SDS011;27586;51.124;4.182;2023-02-02T13:43:53;7.80;;;3.38;;
41903;SDS011;27586;51.124;4.182;2023-02-02T13:46:37;14.25;;;4.03;;
41903;SDS011;27586;51.124;4.182;2023-02-02T14:00:04;5.35;;;2.55;;
41903;SDS011;27586;51.124;4.182;2023-02-02T14:05:35;6.60;;;2.30;;
41903;SDS011;27586;51.124;4.182;2023-02-02T14:08:04;4.85;;;1.88;;
41903;SDS011;27586;51.124;4.182;2023-02-02T14:10:55;6.32;;;2.25;;
41903;SDS011;27586;51.124;4.182;2023-02-02T14:18:59;6.63;;;2.63;;
41903;SDS011;27586;51.124;4.182;2023-02-02T14:24:01;8.20;;;4.18;;
41903;SDS011;27586;51.124;4.182;2023-02-02T14:26:42;8.88;;;4.10;;
41903;SDS011;27586;51.124;4.182;2023-02-02T14:31:57;10.85;;;5.15;;
41903;SDS011;27586;51.124;4.182;2023-02-02T14:34:31;9.80;;;5.18;;
41903;SDS011;27586;51.124;4.182;2023-02-02T14:46:32;9.95;;;5.53;;
41903;SDS011;27586;51.124;4.182;2023-02-02T14:49:10;10.48;;;5.47;;
41903;SDS011;27586;51.124;4.182;2023-02-02T14:51:49;11.73;;;5.60;;
41903;SDS011;27586;51.124;4.182;2023-02-02T14:54:19;8.95;;;5.05;;
41903;SDS011;27586;51.124;4.182;2023-02-02T14:56:52;6.60;;;5.32;;
41903;SDS011;27586;51.124;4.182;2023-02-02T14:59:26;8.63;;;4.65;;
41903;SDS011;27586;51.124;4.182;2023-02-02T15:02:14;8.95;;;4.78;;
41903;SDS011;27586;51.124;4.182;2023-02-02T15:04:46;10.13;;;4.25;;
41903;SDS011;27586;51.124;4.182;2023-02-02T15:09:47;10.38;;;4.82;;
41903;SDS011;27586;51.124;4.182;2023-02-02T15:12:15;7.90;;;4.65;;
41903;SDS011;27586;51.124;4.182;2023-02-02T15:22:41;6.82;;;4.03;;
41903;SDS011;27586;51.124;4.182;2023-02-02T15:25:22;5.53;;;3.80;;
41903;SDS011;27586;51.124;4.182;2023-02-02T15:30:59;8.95;;;3.63;;
41903;SDS011;27586;51.124;4.182;2023-02-02T15:33:34;6.22;;;3.47;;
41903;SDS011;27586;51.124;4.182;2023-02-02T15:38:40;4.65;;;3.00;;
41903;SDS011;27586;51.124;4.182;2023-02-02T15:43:46;6.57;;;2.97;;
41903;SDS011;27586;51.124;4.182;2023-02-02T15:46:12;5.57;;;3.30;;
41903;SDS011;27586;51.124;4.182;2023-02-02T15:49:12;6.55;;;3.30;;
41903;SDS011;27586;51.124;4.182;2023-02-02T15:51:46;6.15;;;3.65;;
41903;SDS011;27586;51.124;4.182;2023-02-02T15:54:30;3.55;;;2.97;;
41903;SDS011;27586;51.124;4.182;2023-02-02T15:56:59;5.57;;;3.88;;
41903;SDS011;27586;51.124;4.182;2023-02-02T15:59:27;4.57;;;3.35;;
41903;SDS011;27586;51.124;4.182;2023-02-02T16:04:42;4.75;;;3.20;;
41903;SDS011;27586;51.124;4.182;2023-02-02T16:07:10;6.57;;;3.78;;
41903;SDS011;27586;51.124;4.182;2023-02-02T16:09:39;6.53;;;4.10;;
41903;SDS011;27586;51.124;4.182;2023-02-02T16:12:07;6.68;;;3.70;;
41903;SDS011;27586;51.124;4.182;2023-02-02T16:14:42;7.35;;;3.60;;
41903;SDS011;27586;51.124;4.182;2023-02-02T16:17:30;7.35;;;3.80;;
41903;SDS011;27586;51.124;4.182;2023-02-02T16:19:58;6.30;;;3.35;;
41903;SDS011;27586;51.124;4.182;2023-02-02T16:22:33;6.50;;;3.35;;
41903;SDS011;27586;51.124;4.182;2023-02-02T16:25:01;5.90;;;3.67;;
41903;SDS011;27586;51.124;4.182;2023-02-02T16:27:31;5.85;;;3.75;;
41903;SDS011;27586;51.124;4.182;2023-02-02T16:30:05;6.15;;;3.65;;
41903;SDS011;27586;51.124;4.182;2023-02-02T16:32:33;5.88;;;3.20;;
41903;SDS011;27586;51.124;4.182;2023-02-02T16:35:05;8.45;;;3.92;;
41903;SDS011;27586;51.124;4.182;2023-02-02T16:37:51;5.93;;;3.72;;
41903;SDS011;27586;51.124;4.182;2023-02-02T16:40:27;6.05;;;3.58;;
41903;SDS011;27586;51.124;4.182;2023-02-02T16:43:06;6.88;;;3.83;;
41903;SDS011;27586;51.124;4.182;2023-02-02T16:45:52;6.93;;;3.83;;
41903;SDS011;27586;51.124;4.182;2023-02-02T16:48:33;6.10;;;3.85;;
41903;SDS011;27586;51.124;4.182;2023-02-02T16:53:32;6.47;;;4.30;;
41903;SDS011;27586;51.124;4.182;2023-02-02T16:55:59;7.80;;;4.43;;
41903;SDS011;27586;51.124;4.182;2023-02-02T16:58:25;6.85;;;4.15;;
41903;SDS011;27586;51.124;4.182;2023-02-02T17:01:07;7.32;;;4.60;;
41903;SDS011;27586;51.124;4.182;2023-02-02T17:03:37;6.70;;;4.50;;
41903;SDS011;27586;51.124;4.182;2023-02-02T17:06:08;8.23;;;4.60;;
41903;SDS011;27586;51.124;4.182;2023-02-02T17:08:35;5.00;;;3.97;;
41903;SDS011;27586;51.124;4.182;2023-02-02T17:13:47;8.25;;;4.00;;
41903;SDS011;27586;51.124;4.182;2023-02-02T17:16:14;7.95;;;3.83;;
41903;SDS011;27586;51.124;4.182;2023-02-02T17:18:41;9.18;;;4.00;;
41903;SDS011;27586;51.124;4.182;2023-02-02T17:21:09;8.40;;;5.85;;
41903;SDS011;27586;51.124;4.182;2023-02-02T17:23:39;9.82;;;5.43;;
41903;SDS011;27586;51.124;4.182;2023-02-02T17:26:08;8.82;;;4.53;;
41903;SDS011;27586;51.124;4.182;2023-02-02T17:28:36;6.88;;;4.22;;
41903;SDS011;27586;51.124;4.182;2023-02-02T17:31:08;6.00;;;3.97;;
41903;SDS011;27586;51.124;4.182;2023-02-02T17:33:36;5.90;;;3.95;;
41903;SDS011;27586;51.124;4.182;2023-02-02T17:36:02;9.57;;;4.75;;
41903;SDS011;27586;51.124;4.182;2023-02-02T17:38:28;5.60;;;4.03;;
41903;SDS011;27586;51.124;4.182;2023-02-02T17:40:54;8.43;;;4.28;;